sensor_id;sensor_type;location;lat;lon;timestamp;pressure;altitude;pressure_sealevel;temperature;humidity
13581;BME280;6861;46.170;7.222;2024-02-26T00:02:27;94455.91;;;10.20;39.13
13581;BME280;6861;46.170;7.222;2024-02-26T00:04:55;94467.03;;;10.26;39.43
13581;BME280;6861;46.170;7.222;2024-02-26T00:07:24;94464.13;;;10.27;39.37
13581;BME280;6861;46.170;7.222;2024-02-26T00:09:53;94458.88;;;10.27;39.49
13581;BME280;6861;46.170;7.222;2024-02-26T00:12:22;94441.66;;;10.26;39.36
13581;BME280;6861;46.170;7.222;2024-02-26T00:14:50;94435.78;;;10.21;39.20
13581;BME280;6861;46.170;7.222;2024-02-26T00:17:19;94440.94;;;10.12;39.92
13581;BME280;6861;46.170;7.222;2024-02-26T00:19:47;94444.44;;;10.07;39.50
13581;BME280;6861;46.170;7.222;2024-02-26T00:22:16;94442.72;;;10.03;39.57
13581;BME280;6861;46.170;7.222;2024-02-26T00:24:44;94433.81;;;10.04;39.41
13581;BME280;6861;46.170;7.222;2024-02-26T00:27:14;94435.94;;;10.02;39.39
13581;BME280;6861;46.170;7.222;2024-02-26T00:29:42;94433.81;;;10.04;39.30
13581;BME280;6861;46.170;7.222;2024-02-26T00:32:10;94433.22;;;10.07;39.40
13581;BME280;6861;46.170;7.222;2024-02-26T00:34:38;94427.50;;;10.05;39.42
13581;BME280;6861;46.170;7.222;2024-02-26T00:37:06;94430.72;;;10.02;39.69
13581;BME280;6861;46.170;7.222;2024-02-26T00:39:35;94432.84;;;10.00;39.65
13581;BME280;6861;46.170;7.222;2024-02-26T00:42:03;94418.44;;;10.02;39.58
13581;BME280;6861;46.170;7.222;2024-02-26T00:44:33;94419.66;;;10.05;39.76
13581;BME280;6861;46.170;7.222;2024-02-26T00:47:01;94425.97;;;10.04;39.82
13581;BME280;6861;46.170;7.222;2024-02-26T00:49:29;94412.91;;;10.04;39.68
13581;BME280;6861;46.170;7.222;2024-02-26T00:51:58;94415.03;;;10.02;39.66
13581;BME280;6861;46.170;7.222;2024-02-26T00:54:26;94407.78;;;9.99;39.79
13581;BME280;6861;46.170;7.222;2024-02-26T00:56:55;94408.88;;;9.98;39.99
13581;BME280;6861;46.170;7.222;2024-02-26T00:59:23;94409.47;;;9.95;39.98
13581;BME280;6861;46.170;7.222;2024-02-26T01:01:52;94405.72;;;9.87;40.49
13581;BME280;6861;46.170;7.222;2024-02-26T01:04:21;94398.44;;;9.75;40.66
13581;BME280;6861;46.170;7.222;2024-02-26T01:06:49;94403.28;;;9.68;40.95
13581;BME280;6861;46.170;7.222;2024-02-26T01:09:17;94401.28;;;9.65;41.28
13581;BME280;6861;46.170;7.222;2024-02-26T01:11:46;94400.69;;;9.68;41.24
13581;BME280;6861;46.170;7.222;2024-02-26T01:14:14;94399.13;;;9.67;41.01
13581;BME280;6861;46.170;7.222;2024-02-26T01:16:42;94394.50;;;9.64;41.21
13581;BME280;6861;46.170;7.222;2024-02-26T01:19:12;94392.00;;;9.59;40.98
13581;BME280;6861;46.170;7.222;2024-02-26T01:21:40;94383.41;;;9.59;41.63
13581;BME280;6861;46.170;7.222;2024-02-26T01:24:09;94392.66;;;9.65;40.81
13581;BME280;6861;46.170;7.222;2024-02-26T01:26:37;94383.66;;;9.71;40.87
13581;BME280;6861;46.170;7.222;2024-02-26T01:29:05;94387.09;;;9.80;40.39
13581;BME280;6861;46.170;7.222;2024-02-26T01:31:34;94386.66;;;9.86;40.13
13581;BME280;6861;46.170;7.222;2024-02-26T01:34:02;94384.53;;;9.89;40.13
13581;BME280;6861;46.170;7.222;2024-02-26T01:36:32;94389.16;;;9.92;40.08
13581;BME280;6861;46.170;7.222;2024-02-26T01:39:01;94382.75;;;9.98;39.46
13581;BME280;6861;46.170;7.222;2024-02-26T01:41:30;94381.25;;;10.05;39.31
13581;BME280;6861;46.170;7.222;2024-02-26T01:43:58;94375.28;;;10.13;39.30
13581;BME280;6861;46.170;7.222;2024-02-26T01:46:26;94372.28;;;10.20;39.29
13581;BME280;6861;46.170;7.222;2024-02-26T01:48:55;94379.53;;;10.23;39.11
13581;BME280;6861;46.170;7.222;2024-02-26T01:51:23;94377.97;;;10.22;39.22
13581;BME280;6861;46.170;7.222;2024-02-26T01:53:53;94377.22;;;10.22;39.46
13581;BME280;6861;46.170;7.222;2024-02-26T01:56:22;94380.28;;;10.24;39.18
13581;BME280;6861;46.170;7.222;2024-02-26T01:58:55;94380.91;;;10.21;39.26
13581;BME280;6861;46.170;7.222;2024-02-26T02:01:25;94375.00;;;10.15;39.63
13581;BME280;6861;46.170;7.222;2024-02-26T02:03:56;94375.00;;;10.15;39.48
13581;BME280;6861;46.170;7.222;2024-02-26T02:06:27;94392.69;;;10.18;39.38
13581;BME280;6861;46.170;7.222;2024-02-26T02:08:57;94371.97;;;10.22;39.22
13581;BME280;6861;46.170;7.222;2024-02-26T02:11:27;94372.16;;;10.25;39.31
13581;BME280;6861;46.170;7.222;2024-02-26T02:13:56;94378.31;;;10.29;39.09
13581;BME280;6861;46.170;7.222;2024-02-26T02:16:24;94390.31;;;10.30;39.29
13581;BME280;6861;46.170;7.222;2024-02-26T02:18:53;94376.78;;;10.28;39.03
13581;BME280;6861;46.170;7.222;2024-02-26T02:21:22;94367.09;;;10.29;38.60
13581;BME280;6861;46.170;7.222;2024-02-26T02:23:51;94372.03;;;10.30;38.70
13581;BME280;6861;46.170;7.222;2024-02-26T02:26:19;94371.72;;;10.32;38.80
13581;BME280;6861;46.170;7.222;2024-02-26T02:28:48;94366.78;;;10.30;38.94
13581;BME280;6861;46.170;7.222;2024-02-26T02:31:17;94362.03;;;10.32;38.95
13581;BME280;6861;46.170;7.222;2024-02-26T02:33:45;94365.13;;;10.34;38.85
13581;BME280;6861;46.170;7.222;2024-02-26T02:36:14;94358.34;;;10.33;38.82
13581;BME280;6861;46.170;7.222;2024-02-26T02:38:50;94360.94;;;10.25;39.05
13581;BME280;6861;46.170;7.222;2024-02-26T02:41:19;94365.78;;;10.17;39.25
13581;BME280;6861;46.170;7.222;2024-02-26T02:43:47;94360.84;;;10.16;39.52
13581;BME280;6861;46.170;7.222;2024-02-26T02:46:15;94356.31;;;10.22;38.76
13581;BME280;6861;46.170;7.222;2024-02-26T02:48:44;94346.19;;;10.29;38.97
13581;BME280;6861;46.170;7.222;2024-02-26T02:51:12;94349.91;;;10.36;38.83
13581;BME280;6861;46.170;7.222;2024-02-26T02:53:41;94332.06;;;10.38;38.62
13581;BME280;6861;46.170;7.222;2024-02-26T02:56:10;94331.91;;;10.43;38.86
13581;BME280;6861;46.170;7.222;2024-02-26T02:58:39;94323.59;;;10.41;39.07
13581;BME280;6861;46.170;7.222;2024-02-26T03:01:07;94328.22;;;10.44;38.81
13581;BME280;6861;46.170;7.222;2024-02-26T03:03:35;94330.22;;;10.47;39.17
13581;BME280;6861;46.170;7.222;2024-02-26T03:06:04;94335.16;;;10.49;38.57
13581;BME280;6861;46.170;7.222;2024-02-26T03:08:32;94330.69;;;10.49;38.68
13581;BME280;6861;46.170;7.222;2024-02-26T03:11:04;94327.59;;;10.30;39.41
13581;BME280;6861;46.170;7.222;2024-02-26T03:13:34;94329.03;;;10.14;39.71
13581;BME280;6861;46.170;7.222;2024-02-26T03:16:04;94325.72;;;10.00;39.85
13581;BME280;6861;46.170;7.222;2024-02-26T03:18:33;94326.13;;;9.84;40.55
13581;BME280;6861;46.170;7.222;2024-02-26T03:21:02;94314.56;;;9.77;40.64
13581;BME280;6861;46.170;7.222;2024-02-26T03:23:30;94308.81;;;9.66;41.08
13581;BME280;6861;46.170;7.222;2024-02-26T03:25:59;94323.22;;;9.64;41.11
13581;BME280;6861;46.170;7.222;2024-02-26T03:28:27;94323.19;;;9.55;41.03
13581;BME280;6861;46.170;7.222;2024-02-26T03:30:57;94323.56;;;9.40;41.80
13581;BME280;6861;46.170;7.222;2024-02-26T03:33:26;94320.22;;;9.26;42.06
13581;BME280;6861;46.170;7.222;2024-02-26T03:35:54;94330.91;;;9.15;42.20
13581;BME280;6861;46.170;7.222;2024-02-26T03:38:23;94324.06;;;9.06;42.31
13581;BME280;6861;46.170;7.222;2024-02-26T03:40:51;94308.53;;;9.01;42.74
13581;BME280;6861;46.170;7.222;2024-02-26T03:43:19;94324.19;;;9.01;42.25
13581;BME280;6861;46.170;7.222;2024-02-26T03:45:56;94323.28;;;9.05;42.99
13581;BME280;6861;46.170;7.222;2024-02-26T03:48:24;94327.63;;;9.10;42.98
13581;BME280;6861;46.170;7.222;2024-02-26T03:50:53;94321.06;;;9.12;42.12
13581;BME280;6861;46.170;7.222;2024-02-26T03:53:21;94326.63;;;9.19;42.62
13581;BME280;6861;46.170;7.222;2024-02-26T03:55:49;94322.84;;;9.26;42.58
13581;BME280;6861;46.170;7.222;2024-02-26T03:58:18;94315.00;;;9.26;41.97
13581;BME280;6861;46.170;7.222;2024-02-26T04:00:47;94321.59;;;9.23;42.62
13581;BME280;6861;46.170;7.222;2024-02-26T04:03:17;94317.38;;;9.13;42.63
13581;BME280;6861;46.170;7.222;2024-02-26T04:05:45;94317.78;;;9.07;42.31
13581;BME280;6861;46.170;7.222;2024-02-26T04:08:14;94315.06;;;9.12;42.96
13581;BME280;6861;46.170;7.222;2024-02-26T04:10:42;94323.38;;;9.14;42.76
13581;BME280;6861;46.170;7.222;2024-02-26T04:13:10;94315.53;;;9.14;43.51
13581;BME280;6861;46.170;7.222;2024-02-26T04:15:38;94322.59;;;9.13;43.64
13581;BME280;6861;46.170;7.222;2024-02-26T04:18:07;94314.75;;;9.13;43.96
13581;BME280;6861;46.170;7.222;2024-02-26T04:20:37;94317.97;;;9.10;43.38
13581;BME280;6861;46.170;7.222;2024-02-26T04:23:05;94319.16;;;9.04;43.58
13581;BME280;6861;46.170;7.222;2024-02-26T04:25:33;94329.09;;;9.02;43.46
13581;BME280;6861;46.170;7.222;2024-02-26T04:28:01;94329.88;;;9.03;43.38
13581;BME280;6861;46.170;7.222;2024-02-26T04:30:30;94335.84;;;9.03;43.35
13581;BME280;6861;46.170;7.222;2024-02-26T04:32:58;94329.56;;;9.04;44.41
13581;BME280;6861;46.170;7.222;2024-02-26T04:35:27;94339.91;;;9.09;43.64
13581;BME280;6861;46.170;7.222;2024-02-26T04:37:56;94340.84;;;9.13;43.56
13581;BME280;6861;46.170;7.222;2024-02-26T04:40:24;94339.69;;;9.19;43.38
13581;BME280;6861;46.170;7.222;2024-02-26T04:42:53;94342.19;;;9.25;43.63
13581;BME280;6861;46.170;7.222;2024-02-26T04:45:21;94340.53;;;9.29;44.20
13581;BME280;6861;46.170;7.222;2024-02-26T04:47:49;94351.44;;;9.31;43.79
13581;BME280;6861;46.170;7.222;2024-02-26T04:50:18;94354.63;;;9.28;43.69
13581;BME280;6861;46.170;7.222;2024-02-26T04:52:46;94356.00;;;9.25;43.77
13581;BME280;6861;46.170;7.222;2024-02-26T04:55:16;94363.34;;;9.23;44.00
13581;BME280;6861;46.170;7.222;2024-02-26T04:57:44;94360.44;;;9.25;44.10
13581;BME280;6861;46.170;7.222;2024-02-26T05:00:13;94365.66;;;9.25;44.25
13581;BME280;6861;46.170;7.222;2024-02-26T05:02:42;94361.03;;;9.22;44.13
13581;BME280;6861;46.170;7.222;2024-02-26T05:05:10;94341.09;;;9.26;44.01
13581;BME280;6861;46.170;7.222;2024-02-26T05:07:40;94350.38;;;9.32;44.28
13581;BME280;6861;46.170;7.222;2024-02-26T05:10:09;94351.31;;;9.36;43.90
13581;BME280;6861;46.170;7.222;2024-02-26T05:12:39;94350.25;;;9.37;43.54
13581;BME280;6861;46.170;7.222;2024-02-26T05:15:10;94351.69;;;9.43;44.03
13581;BME280;6861;46.170;7.222;2024-02-26T05:17:39;94346.81;;;9.50;42.98
13581;BME280;6861;46.170;7.222;2024-02-26T05:20:08;94344.72;;;9.61;42.90
13581;BME280;6861;46.170;7.222;2024-02-26T05:22:37;94346.31;;;9.70;43.05
13581;BME280;6861;46.170;7.222;2024-02-26T05:25:05;94349.03;;;9.65;42.63
13581;BME280;6861;46.170;7.222;2024-02-26T05:27:33;94350.81;;;9.56;43.45
13581;BME280;6861;46.170;7.222;2024-02-26T05:30:04;94349.72;;;9.48;43.91
13581;BME280;6861;46.170;7.222;2024-02-26T05:32:33;94357.09;;;9.46;43.84
13581;BME280;6861;46.170;7.222;2024-02-26T05:35:01;94358.81;;;9.51;43.83
13581;BME280;6861;46.170;7.222;2024-02-26T05:37:30;94363.41;;;9.54;44.26
13581;BME280;6861;46.170;7.222;2024-02-26T05:39:59;94359.13;;;9.58;43.51
13581;BME280;6861;46.170;7.222;2024-02-26T05:42:27;94369.56;;;9.58;43.75
13581;BME280;6861;46.170;7.222;2024-02-26T05:44:55;94375.38;;;9.55;44.31
13581;BME280;6861;46.170;7.222;2024-02-26T05:47:25;94366.16;;;9.49;44.00
13581;BME280;6861;46.170;7.222;2024-02-26T05:49:53;94365.22;;;9.45;44.24
13581;BME280;6861;46.170;7.222;2024-02-26T05:52:22;94351.69;;;9.43;44.33
13581;BME280;6861;46.170;7.222;2024-02-26T05:54:52;94347.41;;;9.47;44.48
13581;BME280;6861;46.170;7.222;2024-02-26T05:57:20;94357.13;;;9.55;44.32
13581;BME280;6861;46.170;7.222;2024-02-26T05:59:49;94349.72;;;9.48;44.21
13581;BME280;6861;46.170;7.222;2024-02-26T06:02:17;94358.28;;;9.40;44.60
13581;BME280;6861;46.170;7.222;2024-02-26T06:04:47;94353.44;;;9.34;44.13
13581;BME280;6861;46.170;7.222;2024-02-26T06:07:15;94350.97;;;9.29;44.61
13581;BME280;6861;46.170;7.222;2024-02-26T06:09:43;94346.34;;;9.26;44.80
13581;BME280;6861;46.170;7.222;2024-02-26T06:12:11;94347.88;;;9.27;44.13
13581;BME280;6861;46.170;7.222;2024-02-26T06:14:40;94341.09;;;9.26;44.43
13581;BME280;6861;46.170;7.222;2024-02-26T06:17:08;94339.75;;;9.28;44.92
13581;BME280;6861;46.170;7.222;2024-02-26T06:19:36;94341.47;;;9.33;44.05
13581;BME280;6861;46.170;7.222;2024-02-26T06:22:06;94353.94;;;9.36;45.02
13581;BME280;6861;46.170;7.222;2024-02-26T06:24:34;94345.84;;;9.24;44.62
13581;BME280;6861;46.170;7.222;2024-02-26T06:27:03;94333.91;;;9.09;45.40
13581;BME280;6861;46.170;7.222;2024-02-26T06:29:31;94334.59;;;9.01;45.81
13581;BME280;6861;46.170;7.222;2024-02-26T06:31:59;94348.34;;;8.93;45.69
13581;BME280;6861;46.170;7.222;2024-02-26T06:34:27;94349.34;;;8.83;46.54
13581;BME280;6861;46.170;7.222;2024-02-26T06:36:56;94348.38;;;8.79;46.17
13581;BME280;6861;46.170;7.222;2024-02-26T06:39:25;94364.03;;;8.79;46.13
13581;BME280;6861;46.170;7.222;2024-02-26T06:41:54;94350.69;;;8.80;46.10
13581;BME280;6861;46.170;7.222;2024-02-26T06:44:28;94361.88;;;8.81;45.70
13581;BME280;6861;46.170;7.222;2024-02-26T06:46:59;94367.28;;;8.84;46.52
13581;BME280;6861;46.170;7.222;2024-02-26T06:49:27;94364.97;;;8.83;45.98
13581;BME280;6861;46.170;7.222;2024-02-26T06:51:56;94358.31;;;8.77;45.96
13581;BME280;6861;46.170;7.222;2024-02-26T06:54:25;94382.56;;;8.77;45.59
13581;BME280;6861;46.170;7.222;2024-02-26T06:56:54;94378.13;;;8.78;46.62
13581;BME280;6861;46.170;7.222;2024-02-26T06:59:22;94364.50;;;8.81;46.92
13581;BME280;6861;46.170;7.222;2024-02-26T07:01:51;94363.81;;;8.89;45.64
13581;BME280;6861;46.170;7.222;2024-02-26T07:04:21;94362.75;;;8.90;46.28
13581;BME280;6861;46.170;7.222;2024-02-26T07:06:49;94349.22;;;8.88;45.97
13581;BME280;6861;46.170;7.222;2024-02-26T07:09:18;94344.13;;;8.83;46.79
13581;BME280;6861;46.170;7.222;2024-02-26T07:11:48;94349.34;;;8.83;46.96
13581;BME280;6861;46.170;7.222;2024-02-26T07:14:16;94349.81;;;8.85;47.04
13581;BME280;6861;46.170;7.222;2024-02-26T07:16:44;94354.44;;;8.88;46.11
13581;BME280;6861;46.170;7.222;2024-02-26T07:19:12;94358.31;;;8.91;46.07
13581;BME280;6861;46.170;7.222;2024-02-26T07:21:41;94360.31;;;8.94;46.61
13581;BME280;6861;46.170;7.222;2024-02-26T07:24:09;94368.81;;;8.99;46.27
13581;BME280;6861;46.170;7.222;2024-02-26T07:26:37;94378.09;;;9.05;46.67
13581;BME280;6861;46.170;7.222;2024-02-26T07:29:07;94370.72;;;9.07;46.03
13581;BME280;6861;46.170;7.222;2024-02-26T07:31:35;94377.50;;;9.08;45.75
13581;BME280;6861;46.170;7.222;2024-02-26T07:34:04;94375.94;;;9.07;46.42
13581;BME280;6861;46.170;7.222;2024-02-26T07:36:32;94369.78;;;9.03;46.12
13581;BME280;6861;46.170;7.222;2024-02-26T07:39:01;94371.50;;;9.08;46.16
13581;BME280;6861;46.170;7.222;2024-02-26T07:41:29;94374.28;;;9.11;45.93
13581;BME280;6861;46.170;7.222;2024-02-26T07:43:58;94379.41;;;9.16;46.56
13581;BME280;6861;46.170;7.222;2024-02-26T07:46:27;94377.66;;;9.26;46.40
13581;BME280;6861;46.170;7.222;2024-02-26T07:48:56;94380.16;;;9.31;45.79
13581;BME280;6861;46.170;7.222;2024-02-26T07:51:24;94373.28;;;9.35;45.89
13581;BME280;6861;46.170;7.222;2024-02-26T07:53:52;94376.84;;;9.39;46.47
13581;BME280;6861;46.170;7.222;2024-02-26T07:56:21;94371.78;;;9.42;46.03
13581;BME280;6861;46.170;7.222;2024-02-26T07:58:49;94374.28;;;9.47;45.68
13581;BME280;6861;46.170;7.222;2024-02-26T08:01:17;94366.16;;;9.49;45.75
13581;BME280;6861;46.170;7.222;2024-02-26T08:03:47;94362.03;;;9.57;45.86
13581;BME280;6861;46.170;7.222;2024-02-26T08:06:16;94367.19;;;9.70;45.37
13581;BME280;6861;46.170;7.222;2024-02-26T08:08:44;94364.28;;;9.72;45.21
13581;BME280;6861;46.170;7.222;2024-02-26T08:11:14;94371.84;;;9.73;45.52
13581;BME280;6861;46.170;7.222;2024-02-26T08:13:43;94366.97;;;9.80;45.27
13581;BME280;6861;46.170;7.222;2024-02-26T08:16:11;94360.53;;;9.86;45.04
13581;BME280;6861;46.170;7.222;2024-02-26T08:18:39;94362.25;;;9.91;44.89
13581;BME280;6861;46.170;7.222;2024-02-26T08:21:09;94360.72;;;9.90;45.22
13581;BME280;6861;46.170;7.222;2024-02-26T08:23:37;94353.19;;;9.89;44.78
13581;BME280;6861;46.170;7.222;2024-02-26T08:26:06;94351.63;;;9.88;44.96
13581;BME280;6861;46.170;7.222;2024-02-26T08:28:37;94347.97;;;9.89;45.18
13581;BME280;6861;46.170;7.222;2024-02-26T08:31:05;94343.22;;;9.91;45.16
13581;BME280;6861;46.170;7.222;2024-02-26T08:33:33;94341.06;;;9.93;44.94
13581;BME280;6861;46.170;7.222;2024-02-26T08:36:04;94338.44;;;9.93;45.00
13581;BME280;6861;46.170;7.222;2024-02-26T08:38:34;94342.78;;;9.97;44.55
13581;BME280;6861;46.170;7.222;2024-02-26T08:41:03;94335.13;;;10.01;44.66
13581;BME280;6861;46.170;7.222;2024-02-26T08:43:32;94337.00;;;10.09;44.38
13581;BME280;6861;46.170;7.222;2024-02-26T08:46:00;94326.47;;;10.23;44.04
13581;BME280;6861;46.170;7.222;2024-02-26T08:48:29;94340.34;;;10.40;43.96
13581;BME280;6861;46.170;7.222;2024-02-26T08:50:58;94351.94;;;10.57;43.33
13581;BME280;6861;46.170;7.222;2024-02-26T08:53:26;94346.91;;;10.69;43.29
13581;BME280;6861;46.170;7.222;2024-02-26T08:56:09;94348.00;;;10.85;43.24
13581;BME280;6861;46.170;7.222;2024-02-26T08:58:38;94343.56;;;10.94;43.18
13581;BME280;6861;46.170;7.222;2024-02-26T09:01:06;94363.28;;;11.00;43.27
13581;BME280;6861;46.170;7.222;2024-02-26T09:03:35;94370.53;;;11.03;42.98
13581;BME280;6861;46.170;7.222;2024-02-26T09:06:04;94359.13;;;10.99;43.06
13581;BME280;6861;46.170;7.222;2024-02-26T09:08:33;94365.13;;;11.00;42.61
13581;BME280;6861;46.170;7.222;2024-02-26T09:11:04;94366.66;;;11.01;42.36
13581;BME280;6861;46.170;7.222;2024-02-26T09:13:33;94365.00;;;11.13;42.42
13581;BME280;6861;46.170;7.222;2024-02-26T09:16:02;94371.47;;;11.25;42.30
13581;BME280;6861;46.170;7.222;2024-02-26T09:18:30;94373.91;;;11.38;42.04
13581;BME280;6861;46.170;7.222;2024-02-26T09:20:59;94377.31;;;11.56;41.30
13581;BME280;6861;46.170;7.222;2024-02-26T09:23:27;94384.53;;;11.68;41.84
13581;BME280;6861;46.170;7.222;2024-02-26T09:25:55;94396.44;;;11.82;41.11
13581;BME280;6861;46.170;7.222;2024-02-26T09:28:24;94396.41;;;11.91;41.42
13581;BME280;6861;46.170;7.222;2024-02-26T09:30:54;94391.78;;;11.97;41.05
13581;BME280;6861;46.170;7.222;2024-02-26T09:33:22;94390.53;;;12.03;40.56
13581;BME280;6861;46.170;7.222;2024-02-26T09:35:50;94391.91;;;12.09;40.98
13581;BME280;6861;46.170;7.222;2024-02-26T09:38:19;94394.19;;;12.19;40.10
13581;BME280;6861;46.170;7.222;2024-02-26T09:40:47;94392.94;;;12.25;39.64
13581;BME280;6861;46.170;7.222;2024-02-26T09:43:17;94391.69;;;12.31;40.17
13581;BME280;6861;46.170;7.222;2024-02-26T09:45:50;94397.50;;;12.45;39.11
13581;BME280;6861;46.170;7.222;2024-02-26T09:48:22;94404.84;;;12.61;40.20
13581;BME280;6861;46.170;7.222;2024-02-26T09:50:52;94405.72;;;12.73;38.69
13581;BME280;6861;46.170;7.222;2024-02-26T09:53:22;94389.75;;;12.87;38.86
13581;BME280;6861;46.170;7.222;2024-02-26T09:55:50;94393.16;;;13.08;37.52
13581;BME280;6861;46.170;7.222;2024-02-26T09:58:19;94403.47;;;13.22;37.64
13581;BME280;6861;46.170;7.222;2024-02-26T10:00:51;94392.44;;;13.29;37.92
13581;BME280;6861;46.170;7.222;2024-02-26T10:03:27;94394.31;;;13.49;37.15
13581;BME280;6861;46.170;7.222;2024-02-26T10:05:56;94388.34;;;13.82;37.37
13581;BME280;6861;46.170;7.222;2024-02-26T10:08:26;94383.84;;;14.27;36.73
13581;BME280;6861;46.170;7.222;2024-02-26T10:10:55;94395.97;;;14.77;36.44
13581;BME280;6861;46.170;7.222;2024-02-26T10:13:23;94375.94;;;15.37;35.28
13581;BME280;6861;46.170;7.222;2024-02-26T10:15:52;94375.19;;;16.52;33.82
13581;BME280;6861;46.170;7.222;2024-02-26T10:18:22;94368.53;;;17.59;32.40
13581;BME280;6861;46.170;7.222;2024-02-26T10:21:02;94367.88;;;18.47;31.55
13581;BME280;6861;46.170;7.222;2024-02-26T10:23:30;94364.69;;;19.36;30.20
13581;BME280;6861;46.170;7.222;2024-02-26T10:25:59;94348.09;;;20.43;29.18
13581;BME280;6861;46.170;7.222;2024-02-26T10:28:29;94343.72;;;21.23;28.48
13581;BME280;6861;46.170;7.222;2024-02-26T10:30:58;94332.50;;;21.58;28.12
13581;BME280;6861;46.170;7.222;2024-02-26T10:33:27;94331.00;;;21.68;27.62
13581;BME280;6861;46.170;7.222;2024-02-26T10:35:58;94325.22;;;21.45;27.32
13581;BME280;6861;46.170;7.222;2024-02-26T10:38:29;94331.69;;;21.47;27.16
13581;BME280;6861;46.170;7.222;2024-02-26T10:40:57;94330.28;;;21.82;26.39
13581;BME280;6861;46.170;7.222;2024-02-26T10:43:26;94323.56;;;22.23;26.07
13581;BME280;6861;46.170;7.222;2024-02-26T10:45:54;94325.84;;;22.53;25.24
13581;BME280;6861;46.170;7.222;2024-02-26T10:48:23;94319.78;;;22.81;25.10
13581;BME280;6861;46.170;7.222;2024-02-26T10:50:52;94318.09;;;23.51;24.17
13581;BME280;6861;46.170;7.222;2024-02-26T10:53:22;94315.72;;;23.78;24.10
13581;BME280;6861;46.170;7.222;2024-02-26T10:55:55;94310.44;;;23.68;24.21
13581;BME280;6861;46.170;7.222;2024-02-26T10:58:26;94307.72;;;23.78;23.74
13581;BME280;6861;46.170;7.222;2024-02-26T11:00:56;94308.03;;;23.91;23.51
13581;BME280;6861;46.170;7.222;2024-02-26T11:03:25;94308.00;;;23.98;22.94
13581;BME280;6861;46.170;7.222;2024-02-26T11:05:55;94309.16;;;25.01;22.00
13581;BME280;6861;46.170;7.222;2024-02-26T11:08:26;94302.69;;;24.98;21.81
13581;BME280;6861;46.170;7.222;2024-02-26T11:10:56;94306.34;;;24.70;21.97
13581;BME280;6861;46.170;7.222;2024-02-26T11:13:27;94310.16;;;24.17;22.29
13581;BME280;6861;46.170;7.222;2024-02-26T11:15:58;94312.84;;;23.27;22.96
13581;BME280;6861;46.170;7.222;2024-02-26T11:18:28;94316.72;;;22.22;23.31
13581;BME280;6861;46.170;7.222;2024-02-26T11:20:59;94304.97;;;21.26;23.70
13581;BME280;6861;46.170;7.222;2024-02-26T11:23:28;94312.78;;;20.43;24.42
13581;BME280;6861;46.170;7.222;2024-02-26T11:25:58;94299.97;;;19.74;25.05
13581;BME280;6861;46.170;7.222;2024-02-26T11:28:28;94302.19;;;19.09;25.37
13581;BME280;6861;46.170;7.222;2024-02-26T11:30:58;94289.44;;;18.61;25.43
13581;BME280;6861;46.170;7.222;2024-02-26T11:33:28;94292.56;;;18.21;25.90
13581;BME280;6861;46.170;7.222;2024-02-26T11:35:56;94289.31;;;17.86;26.09
13581;BME280;6861;46.170;7.222;2024-02-26T11:38:26;94284.59;;;17.56;26.02
13581;BME280;6861;46.170;7.222;2024-02-26T11:40:55;94279.09;;;17.46;26.35
13581;BME280;6861;46.170;7.222;2024-02-26T11:43:51;94276.38;;;17.42;26.35
13581;BME280;6861;46.170;7.222;2024-02-26T11:46:26;94267.22;;;17.36;26.75
13581;BME280;6861;46.170;7.222;2024-02-26T11:48:58;94260.47;;;17.19;27.11
13581;BME280;6861;46.170;7.222;2024-02-26T11:51:28;94254.56;;;17.07;26.93
13581;BME280;6861;46.170;7.222;2024-02-26T11:54:00;94258.59;;;17.00;26.93
13581;BME280;6861;46.170;7.222;2024-02-26T11:56:29;94261.50;;;16.95;27.10
13581;BME280;6861;46.170;7.222;2024-02-26T11:59:03;94259.06;;;16.87;27.25
13581;BME280;6861;46.170;7.222;2024-02-26T12:01:45;94258.16;;;16.79;27.54
13581;BME280;6861;46.170;7.222;2024-02-26T12:04:18;94260.88;;;16.83;27.06
13581;BME280;6861;46.170;7.222;2024-02-26T12:06:50;94257.47;;;16.82;27.84
13581;BME280;6861;46.170;7.222;2024-02-26T12:09:32;94249.13;;;16.80;27.39
13581;BME280;6861;46.170;7.222;2024-02-26T12:12:02;94248.97;;;16.73;27.26
13581;BME280;6861;46.170;7.222;2024-02-26T12:14:34;94239.09;;;16.70;27.23
13581;BME280;6861;46.170;7.222;2024-02-26T12:17:04;94242.50;;;16.55;27.52
13581;BME280;6861;46.170;7.222;2024-02-26T12:19:35;94242.22;;;16.41;27.40
13581;BME280;6861;46.170;7.222;2024-02-26T12:22:08;94236.34;;;16.31;27.65
13581;BME280;6861;46.170;7.222;2024-02-26T12:24:40;94243.31;;;16.24;27.89
13581;BME280;6861;46.170;7.222;2024-02-26T12:27:09;94241.53;;;16.12;27.54
13581;BME280;6861;46.170;7.222;2024-02-26T12:29:39;94245.28;;;16.11;27.64
13581;BME280;6861;46.170;7.222;2024-02-26T12:32:08;94231.06;;;16.16;27.81
13581;BME280;6861;46.170;7.222;2024-02-26T12:34:37;94235.16;;;16.13;27.88
13581;BME280;6861;46.170;7.222;2024-02-26T12:37:06;94237.97;;;16.04;27.98
13581;BME280;6861;46.170;7.222;2024-02-26T12:39:37;94236.59;;;15.95;28.52
13581;BME280;6861;46.170;7.222;2024-02-26T12:42:06;94232.78;;;15.92;28.52
13581;BME280;6861;46.170;7.222;2024-02-26T12:44:35;94230.75;;;16.01;28.43
13581;BME280;6861;46.170;7.222;2024-02-26T12:47:05;94234.91;;;16.02;28.59
13581;BME280;6861;46.170;7.222;2024-02-26T12:49:33;94226.22;;;16.02;28.35
13581;BME280;6861;46.170;7.222;2024-02-26T12:52:03;94225.53;;;16.05;28.48
13581;BME280;6861;46.170;7.222;2024-02-26T12:54:32;94229.63;;;16.02;28.47
13581;BME280;6861;46.170;7.222;2024-02-26T12:57:02;94234.31;;;16.09;29.03
13581;BME280;6861;46.170;7.222;2024-02-26T12:59:34;94233.22;;;16.10;28.48
13581;BME280;6861;46.170;7.222;2024-02-26T13:02:05;94239.25;;;16.11;28.86
13581;BME280;6861;46.170;7.222;2024-02-26T13:04:34;94232.34;;;16.06;28.43
13581;BME280;6861;46.170;7.222;2024-02-26T13:07:04;94230.81;;;16.05;29.02
13581;BME280;6861;46.170;7.222;2024-02-26T13:09:34;94237.47;;;15.99;28.77
13581;BME280;6861;46.170;7.222;2024-02-26T13:12:04;94235.94;;;15.98;29.13
13581;BME280;6861;46.170;7.222;2024-02-26T13:14:33;94236.69;;;15.98;28.97
13581;BME280;6861;46.170;7.222;2024-02-26T13:17:02;94244.53;;;15.95;29.24
13581;BME280;6861;46.170;7.222;2024-02-26T13:19:32;94245.63;;;15.94;28.97
13581;BME280;6861;46.170;7.222;2024-02-26T13:22:04;94253.19;;;15.95;28.81
13581;BME280;6861;46.170;7.222;2024-02-26T13:24:34;94260.34;;;15.95;29.05
13581;BME280;6861;46.170;7.222;2024-02-26T13:27:03;94264.09;;;15.94;29.21